Time;durP1;ratioP1;P1;durP2;ratioP2;P2;SDS_P1;SDS_P2;PMS_P1;PMS_P2;Temp;Humidity;BMP_temperature;BMP_pressure;BME280_temperature;BME280_humidity;BME280_pressure;Samples;Min_cycle;Max_cycle;Signal;HPM_P1;HPM_P2
2022/01/28 00:00:06;;;;;;;91.03;35.40;;;;;;;-3.24;72.06;95665.56;4946272;29;20143;-81
2022/01/28 00:02:58;;;;;;;94.40;35.63;;;;;;;-4.22;71.52;95517.06;4913900;29;20591;-81
2022/01/28 00:05:21;;;;;;;90.63;36.25;;;;;;;-2.87;71.72;95715.81;4915581;29;20048;-81
2022/01/28 00:07:47;;;;;;;90.65;35.25;;;;;;;-2.88;71.63;95712.41;4913897;29;20071;-81
2022/01/28 00:10:12;;;;;;;94.30;34.17;;;;;;;-3.14;71.45;95668.72;4929855;29;20455;-82
2022/01/28 00:12:52;;;;;;;90.05;35.42;;;;;;;-3.15;72.33;95710.41;4916121;29;20412;-81
2022/01/28 00:15:25;;;;;;;91.40;37.45;;;;;;;-3.13;72.61;95708.44;4915701;29;20043;-81
2022/01/28 00:37:10;;;;;;;90.60;32.30;;;;;;;-3.63;72.78;95621.66;4916173;29;20055;-80
2022/01/28 00:39:36;;;;;;;84.35;31.73;;;;;;;-3.21;72.85;95673.00;4915690;29;20036;-81
2022/01/28 00:42:02;;;;;;;70.18;30.35;;;;;;;-3.53;72.33;95630.00;4914711;29;20040;-81
2022/01/28 00:44:28;;;;;;;80.53;31.02;;;;;;;-3.79;72.45;95592.47;4946156;29;20036;-81
2022/01/28 00:46:53;;;;;;;79.95;31.33;;;;;;;-3.74;72.14;95580.63;4915016;29;20050;-81
2022/01/28 00:49:19;;;;;;;85.97;30.48;;;;;;;-3.71;72.52;95589.81;4947060;29;20038;-80
2022/01/28 00:51:45;;;;;;;84.00;31.88;;;;;;;-3.15;72.26;95671.50;4916808;29;20032;-81
2022/01/28 00:54:10;;;;;;;91.82;32.83;;;;;;;-3.00;71.86;95702.66;4946684;29;20062;-81
2022/01/28 00:56:36;;;;;;;70.80;31.13;;;;;;;-3.80;72.30;95576.13;4915989;29;20063;-81
2022/01/28 00:59:01;;;;;;;77.38;32.22;;;;;;;-3.76;72.82;95561.03;4946013;29;20076;-82
2022/01/28 01:01:29;;;;;;;75.85;30.95;;;;;;;-3.87;71.47;95546.72;4946201;29;20040;-82
2022/01/28 01:04:00;;;;;;;85.78;31.33;;;;;;;-3.79;72.33;95579.53;4916363;29;20099;-81
2022/01/28 01:06:26;;;;;;;88.50;32.08;;;;;;;-3.44;71.92;95622.97;4914491;29;20047;-81
2022/01/28 01:08:52;;;;;;;77.72;30.45;;;;;;;-3.56;71.77;95604.44;4915304;29;20051;-82
2022/01/28 01:11:21;;;;;;;81.85;32.28;;;;;;;-3.59;71.75;95607.38;4946397;29;20032;-82
2022/01/28 01:13:48;;;;;;;72.45;29.13;;;;;;;-3.73;71.59;95566.66;4915720;29;20036;-82
2022/01/28 01:16:17;;;;;;;78.28;31.40;;;;;;;-3.51;71.73;95596.91;4914343;29;20044;-81
2022/01/28 01:21:18;;;;;;;69.40;29.92;;;;;;;-3.64;71.64;95607.09;4916045;29;20036;-82
2022/01/28 01:23:51;;;;;;;72.97;26.35;;;;;;;-3.80;71.89;95568.34;4918481;29;20063;-82
2022/01/28 01:26:17;;;;;;;71.53;26.80;;;;;;;-4.07;72.60;95533.44;4948694;29;20677;-81
2022/01/28 01:28:43;;;;;;;68.55;28.33;;;;;;;-3.53;72.28;95624.03;4919353;29;20032;-82
2022/01/28 01:31:14;;;;;;;75.32;26.25;;;;;;;-4.68;72.49;95457.53;4918830;29;20036;-82
2022/01/28 01:33:49;;;;;;;;;;;;;;;-3.48;72.05;95623.47;4917972;29;20036;-82
2022/01/28 01:36:15;;;;;;;62.75;24.83;;;;;;;-3.40;72.41;95613.84;4917443;29;20299;-82
2022/01/28 01:38:41;;;;;;;66.72;24.63;;;;;;;-4.03;71.66;95532.09;4918889;29;20051;-82
2022/01/28 01:41:16;;;;;;;57.38;25.20;;;;;;;-3.82;71.57;95541.00;4918216;29;20036;-82
2022/01/28 01:44:30;;;;;;;58.25;25.52;;;;;;;-3.50;71.48;95601.13;4918764;29;20048;-82
2022/01/28 01:52:16;;;;;;;69.90;23.30;;;;;;;-3.80;71.53;95526.06;4918874;29;20051;-82
2022/01/28 01:54:43;;;;;;;64.65;24.95;;;;;;;-3.84;72.21;95533.41;4949040;29;20048;-82
2022/01/28 01:57:11;;;;;;;71.85;25.52;;;;;;;-3.40;72.83;95592.28;4949260;29;20036;-82
2022/01/28 01:59:39;;;;;;;57.35;24.73;;;;;;;-3.75;73.06;95547.09;4916762;29;20439;-82
2022/01/28 02:02:06;;;;;;;60.25;25.17;;;;;;;-3.67;71.58;95545.25;4917221;29;20568;-82
2022/01/28 02:04:31;;;;;;;60.63;24.80;;;;;;;-3.88;71.13;95514.00;4918914;29;20048;-82
2022/01/28 02:06:57;;;;;;;72.68;28.20;;;;;;;-3.86;71.57;95517.22;4948777;29;20036;-82
2022/01/28 02:09:23;;;;;;;57.13;22.80;;;;;;;-4.62;71.67;95468.97;4916754;29;20495;-81
2022/01/28 02:11:48;;;;;;;53.58;24.05;;;;;;;-4.75;72.78;95461.78;4918305;29;20040;-81
2022/01/28 02:14:13;;;;;;;59.22;23.35;;;;;;;-4.49;73.78;95489.09;4918505;29;20095;-82
2022/01/28 02:16:39;;;;;;;63.00;23.98;;;;;;;-4.40;73.46;95493.22;4918262;29;20274;-82
2022/01/28 02:19:18;;;;;;;59.70;24.60;;;;;;;-4.63;72.50;95482.88;4281825;28;10001296;-81
2022/01/28 02:21:48;;;;;;;57.97;25.05;;;;;;;-4.14;72.29;95517.00;1355257;29;10001990;-81
2022/01/28 02:24:23;;;;;;;59.15;23.45;;;;;;;-4.12;72.96;95530.56;4586807;28;10000571;-81
2022/01/28 02:26:48;;;;;;;59.75;26.02;;;;;;;-4.59;73.39;95447.94;676756;29;10001989;-80
2022/01/28 02:29:25;;;;;;;65.03;24.48;;;;;;;-4.18;73.11;95499.38;4916538;29;20314;-81
2022/01/28 02:31:51;;;;;;;60.58;24.25;;;;;;;-4.53;72.76;95451.59;4915681;29;20175;-82
2022/01/28 02:34:16;;;;;;;57.42;25.25;;;;;;;-3.93;71.74;95530.09;4916704;29;20056;-81
2022/01/28 02:36:42;;;;;;;59.53;24.25;;;;;;;-4.51;72.02;95483.31;4948707;29;20047;-81
2022/01/28 02:39:08;;;;;;;58.15;23.35;;;;;;;-4.49;72.03;95466.59;4916455;29;20040;-81
2022/01/28 02:41:38;;;;;;;57.78;23.80;;;;;;;-4.21;72.50;95508.31;4948421;29;20055;-82
2022/01/28 02:44:23;;;;;;;58.55;23.48;;;;;;;-3.85;71.90;95549.13;4948476;29;20042;-80
2022/01/28 02:47:03;;;;;;;63.67;27.63;;;;;;;-3.93;71.62;95568.94;4932658;29;20047;-82
2022/01/28 02:49:34;;;;;;;92.13;38.53;;;;;;;-4.32;72.03;95511.28;4917984;29;20063;-82
2022/01/28 02:52:01;;;;;;;;;;;;;;;-4.16;72.54;95572.53;4916334;29;20040;-81
2022/01/28 02:54:27;;;;;;;61.35;24.75;;;;;;;-4.42;73.06;95539.19;4948031;28;19923;-81
2022/01/28 02:56:58;;;;;;;55.20;24.08;;;;;;;-4.05;72.59;95561.78;4931769;29;20058;-81
2022/01/28 02:59:23;;;;;;;62.22;23.10;;;;;;;-4.55;72.74;95490.59;4916092;29;20056;-82
2022/01/28 03:01:49;;;;;;;56.58;23.08;;;;;;;-4.22;72.46;95548.13;4915661;29;20063;-82
2022/01/28 03:04:42;;;;;;;60.05;21.60;;;;;;;-4.19;72.30;95534.81;4947598;29;20100;-81
2022/01/28 03:07:00;;;;;;;57.25;21.45;;;;;;;-4.58;71.85;95472.84;4917181;29;20040;-81
2022/01/28 03:09:35;;;;;;;53.22;20.50;;;;;;;-4.89;72.88;95422.91;4947002;29;20039;-81
2022/01/28 03:12:14;;;;;;;55.60;22.92;;;;;;;-4.32;73.07;95498.34;4917304;29;20036;-81
2022/01/28 03:15:00;;;;;;;53.95;22.05;;;;;;;-4.28;72.04;95508.22;4946939;29;20044;-81
2022/01/28 03:20:29;;;;;;;50.17;21.60;;;;;;;-4.31;72.99;95490.41;4917318;29;20080;-81
2022/01/28 03:22:47;;;;;;;54.45;22.30;;;;;;;-3.82;72.56;95535.84;4916587;29;20514;-81
2022/01/28 03:25:15;;;;;;;52.85;21.52;;;;;;;-4.42;72.98;95439.03;4917115;29;20131;-81
2022/01/28 03:30:11;;;;;;;53.72;19.73;;;;;;;-4.56;72.53;95418.28;4917203;29;20043;-81
2022/01/28 03:32:37;;;;;;;51.80;18.98;;;;;;;-4.12;73.59;95512.41;4915919;29;20040;-82
2022/01/28 03:35:04;;;;;;;48.97;19.77;;;;;;;-4.33;72.64;95453.53;4946751;28;20044;-82
2022/01/28 03:37:30;;;;;;;46.88;20.13;;;;;;;-4.57;72.91;95447.72;4916738;29;20042;-81
2022/01/28 03:39:56;;;;;;;44.75;19.33;;;;;;;-4.63;73.24;95407.84;4916378;29;20036;-81
2022/01/28 03:42:21;;;;;;;53.15;19.40;;;;;;;-4.45;72.81;95433.41;4915358;29;20181;-81
2022/01/28 03:44:47;;;;;;;54.55;20.20;;;;;;;-4.04;72.90;95514.13;4914159;29;20120;-81
2022/01/28 03:47:12;;;;;;;45.15;19.13;;;;;;;-4.59;72.77;95405.72;4946628;29;20066;-81
2022/01/28 03:49:37;;;;;;;53.42;19.20;;;;;;;-4.70;72.83;95386.22;4916051;29;20079;-82
2022/01/28 03:52:03;;;;;;;50.55;20.40;;;;;;;-4.05;72.61;95504.78;4947153;29;20043;-81
2022/01/28 03:54:29;;;;;;;55.58;20.23;;;;;;;-3.99;73.57;95494.53;4946629;29;20040;-82
2022/01/28 03:56:55;;;;;;;57.75;19.20;;;;;;;-4.57;73.47;95394.19;4946673;29;20126;-82
2022/01/28 03:59:20;;;;;;;49.55;19.13;;;;;;;-3.90;73.11;95485.69;4916097;29;20056;-82
2022/01/28 04:01:48;;;;;;;46.78;19.48;;;;;;;-4.22;72.50;95454.91;4946820;29;20187;-81
2022/01/28 04:12:40;;;;;;;51.97;19.63;;;;;;;-4.10;72.52;95470.81;4915981;29;20435;-82
2022/01/28 04:17:32;;;;;;;50.92;18.83;;;;;;;-4.19;72.35;95457.13;4916246;29;20130;-81
2022/01/28 04:19:58;;;;;;;48.70;17.60;;;;;;;-4.23;72.66;95471.41;4915744;29;20210;-81
2022/01/28 04:22:25;;;;;;;46.10;18.40;;;;;;;-4.31;72.59;95490.41;4915852;29;20036;-80
2022/01/28 04:24:57;;;;;;;57.70;17.25;;;;;;;-4.54;73.07;95431.88;3198502;28;10021466;-80
2022/01/28 04:27:22;;;;;;;49.70;18.92;;;;;;;-4.50;72.60;95431.34;2202225;28;10001892;-81
2022/01/28 04:29:48;;;;;;;50.85;19.83;;;;;;;-4.55;72.45;95431.06;4946508;29;20030;-81
2022/01/28 04:32:13;;;;;;;44.03;18.33;;;;;;;-5.16;72.43;95337.09;4915670;29;20049;-81
2022/01/28 04:34:39;;;;;;;50.38;19.92;;;;;;;-4.94;72.77;95387.22;4915943;29;20039;-81
2022/01/28 04:37:14;;;;;;;45.63;18.77;;;;;;;-4.38;72.74;95504.22;4915855;29;20071;-81
2022/01/28 04:55:16;;;;;;;65.47;22.83;;;;;;;-4.47;71.90;95445.72;4915244;29;20424;-81
2022/01/28 05:00:22;;;;;;;48.88;20.75;;;;;;;-4.75;71.86;95399.69;4915310;29;20508;-83
2022/01/28 05:08:32;;;;;;;66.07;22.73;;;;;;;-4.75;72.56;95415.22;4915777;29;20510;-82
2022/01/28 05:14:00;;;;;;;70.03;26.25;;;;;;;-4.32;72.57;95513.88;4915732;29;20387;-81
2022/01/28 05:25:42;;;;;;;91.18;35.42;;;;;;;-4.51;72.38;95436.72;4903899;29;20051;-82
2022/01/28 05:27:45;;;;;;;117.55;42.25;;;;;;;-4.85;72.95;95406.88;4914631;29;20043;-83
2022/01/28 05:30:11;;;;;;;84.95;34.22;;;;;;;-4.33;72.57;95471.66;4913292;29;20032;-82
2022/01/28 05:32:37;;;;;;;103.43;36.22;;;;;;;-4.21;72.22;95520.44;4945232;29;20555;-82
2022/01/28 05:35:03;;;;;;;103.75;39.72;;;;;;;-4.76;72.14;95415.38;4915142;29;20119;-82
2022/01/28 05:37:29;;;;;;;124.90;51.33;;;;;;;-4.57;72.24;95471.03;4915420;29;20071;-82
2022/01/28 05:39:54;;;;;;;115.72;49.28;;;;;;;-4.67;72.51;95425.50;4915399;29;20108;-82
2022/01/28 05:42:19;;;;;;;128.63;48.35;;;;;;;-4.92;71.35;95408.53;4915249;29;20048;-82
2022/01/28 05:44:45;;;;;;;123.18;49.42;;;;;;;-4.15;71.49;95525.75;4945673;29;20046;-82
2022/01/28 05:47:14;;;;;;;135.50;51.20;;;;;;;-4.26;71.56;95531.31;4915600;29;20042;-81
2022/01/28 05:49:41;;;;;;;132.25;49.47;;;;;;;-4.67;71.16;95481.63;4945128;29;20042;-82
2022/01/28 05:52:07;;;;;;;132.18;49.40;;;;;;;-4.85;71.54;95435.34;4945956;29;20036;-82
2022/01/28 05:54:33;;;;;;;119.57;48.08;;;;;;;-5.25;72.37;95394.19;4913793;29;20515;-82
2022/01/28 05:56:58;;;;;;;117.55;46.60;;;;;;;-4.33;72.76;95520.84;4945543;29;20147;-81
2022/01/28 05:59:24;;;;;;;127.35;50.50;;;;;;;-4.98;72.25;95418.78;4915419;29;20595;-81
2022/01/28 06:01:49;;;;;;;137.48;52.92;;;;;;;-5.18;72.55;95402.88;4945556;29;20138;-81
2022/01/28 06:04:15;;;;;;;145.45;57.00;;;;;;;-5.60;71.87;95338.69;4914748;29;20044;-81
2022/01/28 06:06:42;;;;;;;165.00;59.88;;;;;;;-4.86;72.17;95441.47;4914543;29;20471;-82
2022/01/28 06:09:07;;;;;;;135.85;52.88;;;;;;;-4.29;71.75;95521.31;4918442;29;20068;-82
2022/01/28 06:11:33;;;;;;;124.22;49.47;;;;;;;-4.79;72.06;95454.53;4917814;29;20102;-81
2022/01/28 06:13:58;;;;;;;135.20;52.03;;;;;;;-5.06;72.67;95428.19;4918235;29;20115;-82
2022/01/28 06:16:24;;;;;;;144.13;56.28;;;;;;;-4.24;73.15;95541.50;4916820;29;20032;-81
2022/01/28 06:18:49;;;;;;;156.40;60.22;;;;;;;-4.86;72.24;95407.84;4917692;29;20040;-81
2022/01/28 06:21:16;;;;;;;163.90;60.92;;;;;;;-4.03;72.01;95558.00;4949099;29;20036;-81
2022/01/28 06:23:41;;;;;;;165.98;59.83;;;;;;;-4.27;72.24;95514.97;4948545;29;20187;-81
2022/01/28 06:26:07;;;;;;;166.18;61.38;;;;;;;-4.65;71.85;95435.66;4948220;28;20127;-82
2022/01/28 06:28:33;;;;;;;146.25;58.63;;;;;;;-4.40;71.45;95475.13;4917987;29;20059;-81
2022/01/28 06:30:58;;;;;;;158.68;60.05;;;;;;;-5.40;71.73;95315.78;4918361;29;20044;-81
2022/01/28 06:33:24;;;;;;;153.02;59.10;;;;;;;-4.49;71.83;95455.44;4948955;29;20120;-81
2022/01/28 06:35:50;;;;;;;108.75;40.83;;;;;;;-4.22;72.13;95524.81;4948476;29;20044;-81
2022/01/28 06:38:16;;;;;;;102.80;39.75;;;;;;;-4.09;71.73;95526.81;4947930;29;20108;-81
2022/01/28 06:40:42;;;;;;;91.07;36.95;;;;;;;-3.80;71.99;95554.59;4949182;29;20032;-81
2022/01/28 06:43:09;;;;;;;94.80;36.05;;;;;;;-3.82;71.36;95554.78;4918796;29;20052;-82
2022/01/28 06:45:35;;;;;;;84.97;34.83;;;;;;;-3.80;71.68;95536.44;4948288;29;20491;-81
2022/01/28 06:48:00;;;;;;;94.45;33.88;;;;;;;-4.65;71.59;95372.78;4916741;29;20074;-81
2022/01/28 06:50:26;;;;;;;87.40;34.03;;;;;;;-4.06;71.76;95479.84;4948272;29;20055;-81
2022/01/28 06:52:51;;;;;;;84.50;34.05;;;;;;;-4.19;71.21;95451.13;4917674;29;20095;-81
2022/01/28 06:55:17;;;;;;;86.90;33.95;;;;;;;-4.23;71.69;95449.91;4948144;29;20110;-82
2022/01/28 06:57:43;;;;;;;84.95;33.25;;;;;;;-4.14;71.85;95461.78;4918140;29;20072;-81
2022/01/28 07:00:10;;;;;;;83.60;31.08;;;;;;;-5.66;71.79;95180.00;4915528;29;20063;-81
2022/01/28 07:02:36;;;;;;;80.40;27.17;;;;;;;-3.19;70.86;95559.47;4918182;29;20036;-81
2022/01/28 07:05:03;;;;;;;79.60;28.77;;;;;;;-3.24;70.86;95561.00;4963592;28;20118;-82
2022/01/28 07:07:28;;;;;;;73.22;29.63;;;;;;;-3.14;70.81;95569.34;4948738;29;20036;-81
2022/01/28 07:09:54;;;;;;;92.57;30.60;;;;;;;-4.62;71.58;95387.94;4947887;29;20051;-82
2022/01/28 07:12:20;;;;;;;70.55;28.00;;;;;;;-3.80;71.58;95502.75;4915971;29;20486;-81
2022/01/28 07:14:47;;;;;;;72.85;28.17;;;;;;;-4.26;71.52;95435.50;4917366;29;20375;-81
2022/01/28 07:17:12;;;;;;;60.83;25.98;;;;;;;-3.60;71.13;95529.78;4915428;29;20054;-80
2022/01/28 07:19:38;;;;;;;73.85;28.42;;;;;;;-3.64;70.55;95495.63;4947353;28;20044;-82
2022/01/28 07:22:04;;;;;;;73.70;28.05;;;;;;;-3.48;70.17;95514.59;4948045;29;20044;-81
2022/01/28 07:24:30;;;;;;;79.75;27.95;;;;;;;-3.76;70.10;95449.59;4917196;29;20067;-82
2022/01/28 07:26:56;;;;;;;74.30;28.77;;;;;;;-5.50;69.80;95153.22;4915871;29;20052;-81
2022/01/28 07:29:27;;;;;;;82.32;30.52;;;;;;;-4.86;69.76;95262.97;4916483;29;20123;-81
2022/01/28 07:31:52;;;;;;;70.43;24.95;;;;;;;-4.60;69.99;95288.44;4915853;29;20110;-82
2022/01/28 07:34:18;;;;;;;67.70;25.02;;;;;;;-4.11;69.36;95363.00;4917256;29;20040;-81
2022/01/28 07:36:43;;;;;;;68.60;26.00;;;;;;;-2.74;70.28;95581.81;4917142;29;20047;-82
2022/01/28 07:39:09;;;;;;;68.90;23.92;;;;;;;-2.90;70.85;95594.22;4915506;29;20039;-81
2022/01/28 07:41:35;;;;;;;69.70;25.45;;;;;;;-2.92;71.17;95590.97;4947062;29;20039;-81
2022/01/28 07:44:01;;;;;;;66.20;25.00;;;;;;;-3.13;70.49;95537.22;4916485;29;20092;-81
2022/01/28 07:46:26;;;;;;;60.15;25.60;;;;;;;-3.44;70.40;95472.56;4914976;29;20084;-82
2022/01/28 07:48:52;;;;;;;61.70;24.27;;;;;;;-3.28;69.28;95487.91;4916755;29;20055;-81
2022/01/28 07:51:17;;;;;;;69.32;24.70;;;;;;;-3.27;69.25;95479.16;4916580;29;20444;-81
2022/01/28 07:53:43;;;;;;;63.58;24.85;;;;;;;-3.00;69.34;95492.47;4947222;29;20032;-81
2022/01/28 07:56:09;;;;;;;68.32;26.15;;;;;;;-3.19;68.92;95486.03;4916808;29;20131;-81
2022/01/28 07:58:34;;;;;;;61.80;24.52;;;;;;;-2.87;68.92;95542.72;4916707;29;20067;-81
2022/01/28 08:01:00;;;;;;;141.68;62.97;;;;;;;-2.67;68.89;95601.88;4916323;29;20055;-81
2022/01/28 08:03:25;;;;;;;188.05;70.22;;;;;;;-3.03;68.85;95500.59;4946212;29;20138;-81
2022/01/28 08:05:51;;;;;;;184.40;74.70;;;;;;;-2.84;68.53;95494.84;4916861;29;20052;-81
2022/01/28 08:08:19;;;;;;;183.55;75.05;;;;;;;-2.80;68.60;95499.47;4916790;29;20038;-81
2022/01/28 08:10:46;;;;;;;186.00;78.55;;;;;;;-2.93;68.31;95491.56;4946738;29;20032;-81
2022/01/28 08:13:12;;;;;;;183.85;77.72;;;;;;;-2.08;67.72;95599.94;4914737;29;20123;-81
2022/01/28 08:15:39;;;;;;;176.98;77.80;;;;;;;-1.88;68.25;95600.94;4946148;29;20064;-81
2022/01/28 08:18:05;;;;;;;188.38;79.68;;;;;;;-2.03;67.72;95556.00;4916202;29;20194;-81
2022/01/28 08:20:31;;;;;;;167.63;74.78;;;;;;;-2.36;67.57;95482.94;4914872;29;20128;-81
2022/01/28 08:22:57;;;;;;;175.45;74.53;;;;;;;-1.65;66.98;95572.13;4914666;29;20467;-81
2022/01/28 08:25:24;;;;;;;167.27;72.07;;;;;;;-1.60;66.88;95587.94;4945951;29;20483;-81
2022/01/28 08:27:53;;;;;;;176.63;74.97;;;;;;;-1.52;66.63;95577.41;4916017;29;20040;-81
2022/01/28 08:30:21;;;;;;;168.95;68.28;;;;;;;-1.89;66.55;95538.72;4916086;29;20063;-81
2022/01/28 08:32:47;;;;;;;153.32;63.38;;;;;;;-2.53;66.91;95447.84;4945545;29;20111;-81
2022/01/28 08:35:15;;;;;;;131.65;55.17;;;;;;;-2.01;66.91;95504.63;4913961;29;20047;-81
2022/01/28 08:37:40;;;;;;;136.43;57.45;;;;;;;-2.36;66.37;95449.16;4915621;29;20123;-82
2022/01/28 08:40:08;;;;;;;152.93;64.40;;;;;;;-1.54;66.88;95560.41;4945438;29;20123;-81
2022/01/28 08:42:34;;;;;;;150.57;64.57;;;;;;;-1.99;67.32;95472.28;4915563;29;20502;-81
2022/01/28 08:44:59;;;;;;;132.27;52.53;;;;;;;-1.90;66.97;95466.91;4914008;29;20036;-81
2022/01/28 08:47:25;;;;;;;133.98;56.25;;;;;;;-1.45;66.97;95530.66;4913914;29;20042;-81
2022/01/28 08:49:50;;;;;;;138.25;55.03;;;;;;;-1.27;66.66;95513.56;4916027;29;20043;-81
2022/01/28 08:52:16;;;;;;;117.35;51.00;;;;;;;-0.94;66.08;95551.97;4946201;29;20111;-81
2022/01/28 08:54:42;;;;;;;117.45;50.60;;;;;;;-0.95;65.33;95539.94;4914599;29;20091;-81
2022/01/28 08:57:09;;;;;;;116.88;49.05;;;;;;;-1.58;64.78;95448.13;4930611;29;20075;-81
2022/01/28 08:59:44;;;;;;;116.32;46.78;;;;;;;-1.45;64.84;95447.41;4914570;29;20060;-81
2022/01/28 09:02:11;;;;;;;108.63;47.38;;;;;;;-0.74;64.35;95565.06;4915471;29;20119;-81
2022/01/28 09:04:36;;;;;;;110.25;46.15;;;;;;;-1.43;64.21;95445.41;4915411;29;20043;-81
2022/01/28 09:07:02;;;;;;;110.43;41.58;;;;;;;-0.70;64.37;95584.53;4946093;29;20081;-81
2022/01/28 09:09:29;;;;;;;119.18;45.80;;;;;;;-1.35;64.23;95464.28;4929342;29;20518;-81
2022/01/28 09:14:25;;;;;;;104.43;43.80;;;;;;;-1.57;63.44;95460.16;4915402;29;20147;-81
2022/01/28 09:16:56;;;;;;;109.88;43.42;;;;;;;-2.05;63.37;95350.88;4945924;28;20069;-81
2022/01/28 09:19:21;;;;;;;114.15;46.75;;;;;;;-2.35;63.84;95293.13;4914549;29;20079;-81
2022/01/28 09:21:46;;;;;;;130.93;46.78;;;;;;;-1.33;63.52;95419.84;4946012;29;20066;-81
2022/01/28 09:24:12;;;;;;;122.82;47.75;;;;;;;-0.81;63.19;95459.09;4914580;29;20047;-81
2022/01/28 09:26:38;;;;;;;117.05;46.83;;;;;;;-0.02;62.63;95580.94;4916020;29;20405;-81
2022/01/28 09:29:04;;;;;;;119.35;46.40;;;;;;;0.37;61.61;95588.03;4915067;29;20048;-81
2022/01/28 09:31:30;;;;;;;149.90;51.80;;;;;;;0.51;62.53;95583.59;4915107;29;20153;-81
2022/01/28 09:33:55;;;;;;;130.60;49.63;;;;;;;0.41;61.62;95551.88;4946818;28;20119;-81
2022/01/28 09:36:21;;;;;;;129.13;48.65;;;;;;;0.24;60.86;95476.63;4916527;29;20040;-81
2022/01/28 09:38:46;;;;;;;120.70;50.20;;;;;;;0.14;61.19;95467.63;4915435;29;20036;-81
2022/01/28 09:41:13;;;;;;;120.00;51.22;;;;;;;1.07;60.22;95589.97;4915344;29;20036;-82
2022/01/28 09:43:40;;;;;;;127.93;51.28;;;;;;;0.77;60.17;95519.13;4916871;29;20036;-82
2022/01/28 09:46:06;;;;;;;132.75;52.63;;;;;;;0.86;59.70;95511.06;4949084;29;20483;-82
2022/01/28 09:48:31;;;;;;;128.73;52.85;;;;;;;1.41;59.57;95564.56;4949277;29;20110;-80
2022/01/28 09:51:02;;;;;;;148.65;51.95;;;;;;;1.68;58.94;95573.88;4917425;29;20032;-82
2022/01/28 09:53:28;;;;;;;155.10;55.00;;;;;;;1.44;59.45;95549.28;4964762;28;20048;-82
2022/01/28 09:55:54;;;;;;;128.52;54.08;;;;;;;1.57;59.69;95584.19;4916830;29;20060;-82
2022/01/28 09:58:20;;;;;;;124.57;52.47;;;;;;;1.23;59.95;95553.94;4945936;29;20035;-82
2022/01/28 10:00:45;;;;;;;129.45;53.35;;;;;;;1.45;59.70;95576.22;4917011;29;20054;-83
2022/01/28 10:03:16;;;;;;;123.65;51.33;;;;;;;1.17;59.08;95492.88;4946010;29;20040;-82
2022/01/28 10:05:47;;;;;;;129.25;51.50;;;;;;;1.98;58.30;95596.91;4916312;29;20063;-82
2022/01/28 10:08:41;;;;;;;;;;;;;;;2.08;57.91;95576.28;4946713;29;20106;-82
2022/01/28 10:11:11;;;;;;;125.38;49.47;;;;;;;2.11;58.03;95579.31;4915074;29;19915;-82
2022/01/28 10:13:49;;;;;;;116.88;49.83;;;;;;;1.69;58.34;95512.75;4916497;29;20562;-82
2022/01/28 10:16:22;;;;;;;128.27;52.15;;;;;;;1.58;57.65;95497.72;4918454;29;20040;-82
2022/01/28 10:18:56;;;;;;;124.25;50.85;;;;;;;2.28;57.80;95593.50;4917538;29;20038;-82
2022/01/28 10:21:24;;;;;;;115.82;50.78;;;;;;;2.32;57.85;95589.41;4917856;29;20103;-82
2022/01/28 10:24:03;;;;;;;127.68;50.05;;;;;;;2.19;58.16;95586.91;4917797;29;20028;-82
2022/01/28 10:26:38;;;;;;;131.35;52.10;;;;;;;2.23;58.30;95590.69;4915962;29;20051;-82
2022/01/28 10:29:08;;;;;;;138.63;52.55;;;;;;;1.77;59.10;95543.06;4947152;29;20040;-82
2022/01/28 10:31:38;;;;;;;117.68;47.38;;;;;;;1.14;58.96;95512.38;4946336;29;20119;-81
2022/01/28 10:34:16;;;;;;;115.45;48.53;;;;;;;1.57;60.14;95595.47;4949316;29;20047;-81
2022/01/28 10:36:43;;;;;;;123.75;51.08;;;;;;;1.41;60.04;95561.94;4916894;29;20059;-82
2022/01/28 10:39:20;;;;;;;136.98;47.95;;;;;;;1.48;60.08;95576.59;4947689;29;20051;-82
2022/01/28 10:41:58;;;;;;;134.90;50.33;;;;;;;1.39;60.31;95538.63;4947052;29;20424;-82
2022/01/28 10:44:26;;;;;;;129.25;48.63;;;;;;;1.50;59.17;95592.88;4931553;29;20111;-82
2022/01/28 10:47:06;;;;;;;125.72;47.70;;;;;;;1.68;60.04;95591.41;4917404;29;20035;-82
2022/01/28 10:49:34;;;;;;;125.97;50.65;;;;;;;1.21;59.71;95527.25;4930371;29;20044;-82
2022/01/28 10:52:06;;;;;;;118.88;49.17;;;;;;;1.55;59.71;95587.00;4946682;28;20099;-82
2022/01/28 10:54:32;;;;;;;111.40;50.50;;;;;;;1.70;59.27;95590.16;4914318;29;20512;-82
2022/01/28 10:57:08;;;;;;;123.27;48.70;;;;;;;1.76;58.84;95588.53;4732806;28;10001412;-82
2022/01/28 10:59:36;;;;;;;127.15;51.45;;;;;;;1.79;58.70;95585.50;678535;28;10001996;-81
2022/01/28 11:02:03;;;;;;;123.18;49.35;;;;;;;1.17;58.57;95498.91;4967268;28;20294;-82
2022/01/28 11:04:29;;;;;;;115.72;44.40;;;;;;;1.08;59.18;95496.72;4950453;28;20494;-81
2022/01/28 11:06:57;;;;;;;128.75;47.35;;;;;;;1.59;60.03;95574.34;4936176;29;20083;-81
2022/01/28 11:09:23;;;;;;;114.07;44.63;;;;;;;1.58;59.23;95570.13;4936793;29;20243;-81
2022/01/28 11:11:50;;;;;;;116.57;43.35;;;;;;;1.58;59.32;95577.97;4935972;29;20375;-81
2022/01/28 11:14:17;;;;;;;118.60;44.72;;;;;;;1.00;59.79;95450.75;4937203;29;20032;-81
2022/01/28 11:16:43;;;;;;;117.68;45.05;;;;;;;0.95;59.86;95461.03;4935395;29;20047;-81
2022/01/28 11:19:11;;;;;;;127.70;44.67;;;;;;;1.14;59.45;95496.72;4936066;29;20042;-81
2022/01/28 11:22:13;;;;;;;116.32;44.40;;;;;;;1.81;58.27;95562.56;4936032;29;20035;-81
2022/01/28 11:24:58;;;;;;;105.43;42.45;;;;;;;2.01;58.46;95558.03;4936883;29;20040;-82
2022/01/28 11:27:34;;;;;;;98.88;42.00;;;;;;;1.81;57.56;95524.16;4968360;28;20095;-81
2022/01/28 11:30:28;;;;;;;120.75;42.20;;;;;;;2.35;58.16;95566.47;4969202;28;20063;-81
2022/01/28 11:33:05;;;;;;;113.13;41.00;;;;;;;2.44;58.38;95567.81;4966970;28;20051;-81
2022/01/28 11:35:36;;;;;;;90.40;33.35;;;;;;;2.12;59.65;95540.84;4951792;29;20510;-82
2022/01/28 11:38:22;;;;;;;;;;;;;;;2.13;60.92;95563.41;4937185;29;20483;-82
2022/01/28 11:41:05;;;;;;;65.43;25.05;;;;;;;2.12;60.80;95556.56;4934528;29;19926;-82
2022/01/28 11:43:32;;;;;;;51.83;20.17;;;;;;;2.11;62.77;95553.13;4936256;29;20506;-82
2022/01/28 11:46:15;;;;;;;31.83;14.35;;;;;;;2.10;63.78;95548.91;4967905;28;20531;-81
2022/01/28 11:48:52;;;;;;;31.30;13.43;;;;;;;2.19;63.51;95549.47;4951097;28;20095;-81
2022/01/28 11:51:37;;;;;;;23.63;11.95;;;;;;;2.27;63.86;95543.97;4967879;28;20031;-82
2022/01/28 11:54:05;;;;;;;26.60;9.93;;;;;;;1.87;64.38;95485.88;4935256;29;20506;-81
2022/01/28 11:56:32;;;;;;;18.75;9.02;;;;;;;1.93;63.73;95491.06;4935691;29;20040;-81
2022/01/28 11:59:03;;;;;;;25.27;10.20;;;;;;;2.05;63.88;95490.41;4935612;29;20031;-82
2022/01/28 12:01:38;;;;;;;22.23;8.38;;;;;;;2.46;64.46;95531.72;4933963;29;20043;-82
2022/01/28 12:04:30;;;;;;;19.60;8.55;;;;;;;2.43;64.83;95525.13;4934982;29;20039;-81
2022/01/28 12:07:01;;;;;;;;;;;;;;;2.43;65.12;95530.34;4935500;29;20101;-82
2022/01/28 12:09:29;;;;;;;27.65;9.23;;;;;;;2.04;64.88;95447.75;4935998;29;19922;-82
2022/01/28 12:11:57;;;;;;;23.00;8.55;;;;;;;2.09;64.01;95434.81;4934351;29;20053;-82
2022/01/28 12:14:57;;;;;;;18.08;9.15;;;;;;;2.68;64.06;95523.28;4965721;28;20039;-81
2022/01/28 12:17:31;;;;;;;25.08;10.48;;;;;;;2.67;64.15;95521.66;4936359;29;20093;-82
2022/01/28 12:20:13;;;;;;;22.15;10.25;;;;;;;2.22;64.04;95442.53;4965137;28;20051;-82
2022/01/28 12:23:10;;;;;;;35.83;11.20;;;;;;;2.79;65.02;95516.53;4965629;28;20035;-82
2022/01/28 12:25:35;;;;;;;25.13;10.65;;;;;;;2.85;64.25;95510.41;4934930;29;20036;-82
2022/01/28 12:28:14;;;;;;;25.40;10.30;;;;;;;2.89;64.43;95524.69;4935356;29;20066;-81
2022/01/28 12:30:44;;;;;;;44.25;11.30;;;;;;;2.45;64.29;95407.09;4934634;29;20116;-82
2022/01/28 12:33:10;;;;;;;27.70;10.32;;;;;;;2.37;64.07;95399.50;4934505;29;20491;-82
2022/01/28 12:35:38;;;;;;;24.95;9.25;;;;;;;2.64;63.82;95440.94;4935278;29;20071;-81
2022/01/28 12:38:04;;;;;;;25.27;9.55;;;;;;;2.66;63.98;95440.72;4935023;29;20050;-82
2022/01/28 12:40:36;;;;;;;23.08;10.32;;;;;;;3.12;64.56;95512.78;4965799;28;20035;-82
2022/01/28 12:43:06;;;;;;;26.20;9.93;;;;;;;3.06;64.31;95509.19;4934921;29;20062;-81
2022/01/28 12:45:32;;;;;;;26.38;9.98;;;;;;;3.10;63.99;95518.22;4935093;29;20122;-81